Detalii statie RANDUNICA PREST ANDRID [00001984]

Toti senzorii

Date Temperatura solului [C]Precipitatii [mm]Voltaj baterie [mV]Leaf Wetness [Min]HC Air temperature [C]HC Relative humidity [%]Punctul de roua [C]
medieminmaxsumaultimatimpmedieminmaxmediemediemin
2018-08-12 11:00:00 25.5 25.5 25.7 0 7264 26.33 25.41 28.25 0 0 0
2018-08-12 12:00:00 25.8 25.7 25.9 0 7274 28.84 27.94 30.16 0 0 0
2018-08-12 13:00:00 26.2 25.9 26.6 0 7264 29.77 28.75 31.03 0 0 0
2018-08-12 14:00:00 27.1 26.5 27.8 0 7274 30.53 29.83 31.18 0 0 0
2018-08-12 15:00:00 28.3 27.8 28.7 0 7264 31.33 31 31.77 0 0 0
2018-08-12 16:00:00 29.3 28.8 29.9 0 7264 31.55 30.78 32.34 0 0 0
2018-08-12 17:00:00 30 29.7 30.3 0 7264 31.6 31.14 32.12 0 0 0
2018-08-12 18:00:00 30.3 30.2 30.5 0 7274 31.08 30.64 31.47 0 0 0
2018-08-12 19:00:00 30.2 30.1 30.4 0 7254 30.04 29.2 30.7 0 0 0
2018-08-12 20:00:00 29.9 29.7 30.2 0 6962 26.74 24.58 28.7 0 0 0
2018-08-12 21:00:00 29.3 29 29.7 0 6932 23.32 22.26 24.14 0 0 0
2018-08-12 22:00:00 28.6 28.4 28.9 0 6914 21.12 20.59 21.82 0 0 0
2018-08-12 23:00:00 28.1 27.8 28.5 0 6884 20.1 19.76 20.41 0 0 0
2018-08-13 00:00:00 27.5 27.3 27.8 0 6874 19.86 19.37 20.2 0 0 0
2018-08-13 01:00:00 26.9 26.7 27.3 0 6864 19.96 19.29 20.39 0 0 0
2018-08-13 02:00:00 26.5 26.3 26.9 0 6874 19.36 19.1 19.78 0 0 0
2018-08-13 03:00:00 26.1 25.9 26.3 0 6874 18.47 17.42 19.39 0 0 0
2018-08-13 04:00:00 25.6 25.4 25.9 0 6854 17.92 17.52 18.35 0 0 0
2018-08-13 05:00:00 25.2 25 25.5 0 6854 16.85 16.42 17.49 0 0 0
2018-08-13 06:00:00 24.9 24.8 25.3 0 6854 17.24 17.01 17.61 0 0 0
2018-08-13 07:00:00 24.5 24.5 24.7 0 6884 18.75 17.36 20.06 0 0 0
2018-08-13 08:00:00 24.3 24.2 24.4 0 6884 24.11 20.47 27.24 0 0 0
2018-08-13 09:00:00 24.4 24.3 24.5 0 6962 28.09 27.7 28.6 0 0 0
2018-08-13 10:00:00 24.7 24.5 24.9 0 7050 28.78 28.04 29.41 0 0 0
2018-08-13 11:00:00 25.1 24.9 25.3 0 7264 29.78 29.16 30.83 0 0 0
2018-08-13 12:00:00 25.5 25.4 25.6 0 7274 30.38 29.62 31.11 0 0 0
2018-08-13 13:00:00 25.8 25.6 26.2 0 7274 31.02 29.49 32.34 0 0 0
2018-08-13 14:00:00 26.5 26.1 27.1 0 7264 33.03 32.24 33.68 0 0 0
2018-08-13 15:00:00 27.7 27.1 28.5 0 7254 33.08 31.09 33.83 0 0 0
2018-08-13 16:00:00 28.7 28.2 29.2 0 7264 33.23 31.95 34.23 0 0 0
2018-08-13 17:00:00 29.4 29.2 29.7 0 7264 32.9 32.51 33.36 0 0 0
2018-08-13 18:00:00 29.8 29.7 30.1 0 7274 32.35 32.05 32.87 0 0 0
2018-08-13 19:00:00 29.9 29.7 30.1 0 7246 30.85 29.96 31.58 0 0 0
2018-08-13 20:00:00 29.6 29.2 29.9 0 6952 27.88 26.33 29.61 0 0 0
2018-08-13 21:00:00 29.1 28.9 29.4 0 6932 25.28 24.57 26.1 0 0 0
2018-08-13 22:00:00 28.6 28.3 28.9 0 6904 24.21 23.95 24.47 0 0 0
2018-08-13 23:00:00 28 27.9 28.3 0 6874 23.93 23.67 24.06 0 0 0
2018-08-14 00:00:00 27.5 27.4 27.8 0 6884 23.04 22.55 23.67 0 0 0
2018-08-14 01:00:00 27.1 26.9 27.4 0 6854 22.92 21.06 23.95 0 0 0
2018-08-14 02:00:00 26.7 26.5 26.9 0 6864 20.17 19.53 20.78 0 0 0
2018-08-14 03:00:00 26.3 26.1 26.6 0 6864 19.63 18.97 20.03 0 0 0
2018-08-14 04:00:00 25.9 25.7 26.2 0 6854 19.21 18.82 19.47 0 0 0
2018-08-14 05:00:00 25.5 25.3 25.8 0 6844 18.11 17.53 18.51 0 0 0
2018-08-14 06:00:00 25.2 25 25.5 0 6854 18.01 17.44 18.48 0 0 0
2018-08-14 07:00:00 24.8 24.6 25.1 0 6884 20.05 18.01 21.67 0 0 0